Time;durP1;ratioP1;P1;durP2;ratioP2;P2;SDS_P1;SDS_P2;PMS_P1;PMS_P2;Temp;Humidity;BMP_temperature;BMP_pressure;BME280_temperature;BME280_humidity;BME280_pressure;Samples;Min_cycle;Max_cycle;Signal;HPM_P1;HPM_P2
2021/12/05 00:24:21;;;;;;;13.53;2.90;;;13.20;99.90;;;;;;5006181;28;20832;-66
2021/12/05 00:27:00;;;;;;;12.57;3.50;;;13.20;99.90;;;;;;5006576;28;20297;-65
2021/12/05 00:29:49;;;;;;;7.57;2.80;;;13.20;99.90;;;;;;5022094;28;20216;-65
2021/12/05 00:32:22;;;;;;;8.20;3.00;;;13.30;99.90;;;;;;5002413;28;20642;-65
2021/12/05 00:59:03;;;;;;;5.43;3.10;;;13.30;99.90;;;;;;5007276;28;20185;-65
2021/12/05 01:16:45;;;;;;;11.47;3.20;;;13.30;99.90;;;;;;5007069;28;20271;-65
2021/12/05 01:19:15;;;;;;;9.00;3.03;;;13.40;99.90;;;;;;5008219;28;20200;-64
2021/12/05 01:21:45;;;;;;;14.20;3.73;;;13.50;99.90;;;;;;4985225;28;20196;-65
2021/12/05 01:32:24;;;;;;;11.40;2.93;;;14.00;99.90;;;;;;5003992;28;20200;-64
2021/12/05 01:40:27;;;;;;;7.83;3.30;;;14.30;99.90;;;;;;5038067;28;20290;-64
2021/12/05 01:51:03;;;;;;;9.10;2.93;;;14.50;99.90;;;;;;5005850;28;20184;-65
2021/12/05 01:56:42;;;;;;;9.80;3.43;;;14.60;99.90;;;;;;5010752;28;20220;-65
2021/12/05 02:02:05;;;;;;;13.13;3.57;;;14.70;99.90;;;;;;5003876;28;20197;-66
2021/12/05 02:30:51;;;;;;;10.00;2.80;;;15.00;99.90;;;;;;5005766;28;20192;-63
2021/12/05 02:42:58;;;;;;;6.60;2.87;;;15.10;99.90;;;;;;5005406;28;20192;-62
2021/12/05 02:45:26;;;;;;;6.73;2.60;;;15.10;99.90;;;;;;5000753;28;20192;-64
2021/12/05 02:47:54;;;;;;;9.50;2.80;;;15.00;99.90;;;;;;5004518;28;20201;-64
2021/12/05 02:50:27;;;;;;;5.83;2.80;;;15.00;99.90;;;;;;5004904;28;20193;-65
2021/12/05 02:52:59;;;;;;;9.63;2.80;;;15.10;99.90;;;;;;5017786;28;20173;-64
2021/12/05 02:55:41;;;;;;;8.60;2.70;;;15.10;99.90;;;;;;5006281;28;20216;-63
2021/12/05 02:58:29;;;;;;;7.83;3.00;;;15.10;99.90;;;;;;5004811;28;20260;-63
2021/12/05 03:03:32;;;;;;;9.40;2.73;;;15.20;99.90;;;;;;5033807;28;20350;-63
2021/12/05 03:06:12;;;;;;;5.53;2.63;;;15.20;99.90;;;;;;5001380;28;20205;-63
2021/12/05 03:08:40;;;;;;;11.13;2.93;;;15.10;99.90;;;;;;5034730;28;20192;-63
2021/12/05 03:11:08;;;;;;;6.23;2.60;;;15.10;99.90;;;;;;5005363;28;20745;-64
2021/12/05 03:13:39;;;;;;;6.50;2.90;;;15.10;99.90;;;;;;5004817;28;20283;-65
2021/12/05 03:16:08;;;;;;;6.13;2.53;;;15.10;99.90;;;;;;5005688;28;20216;-64
2021/12/05 03:18:35;;;;;;;7.50;2.60;;;15.10;99.90;;;;;;5005303;28;20235;-64
2021/12/05 03:21:04;;;;;;;10.60;2.50;;;15.10;99.90;;;;;;5003226;28;20330;-63
2021/12/05 03:23:31;;;;;;;6.80;2.60;;;15.10;99.90;;;;;;5005609;28;20840;-64
2021/12/05 03:25:58;;;;;;;5.27;2.60;;;15.10;99.90;;;;;;5003946;28;20200;-65
2021/12/05 03:28:24;;;;;;;5.27;2.17;;;15.10;99.90;;;;;;5005187;28;20650;-63
2021/12/05 03:30:51;;;;;;;12.40;2.40;;;15.10;99.90;;;;;;5003749;28;20251;-63
2021/12/05 03:33:17;;;;;;;4.47;2.47;;;15.10;99.90;;;;;;5005198;28;20200;-64
2021/12/05 03:35:43;;;;;;;5.67;2.70;;;15.00;99.90;;;;;;5005163;28;20213;-64
2021/12/05 03:38:10;;;;;;;6.07;2.73;;;15.00;99.90;;;;;;5006020;28;20284;-64
2021/12/05 03:40:37;;;;;;;6.40;2.37;;;14.90;99.90;;;;;;5005239;28;20250;-64
2021/12/05 03:43:07;;;;;;;4.20;2.43;;;14.90;99.90;;;;;;5005591;28;20197;-64
2021/12/05 03:45:41;;;;;;;5.20;2.60;;;14.80;99.90;;;;;;5003727;28;20196;-64
2021/12/05 03:48:10;;;;;;;6.60;2.33;;;14.80;99.90;;;;;;5036387;28;20199;-63
2021/12/05 03:50:37;;;;;;;12.10;2.90;;;14.80;99.90;;;;;;5005167;28;20193;-63
2021/12/05 03:53:06;;;;;;;9.47;2.73;;;14.80;99.90;;;;;;5005325;28;20235;-64
2021/12/05 03:55:34;;;;;;;9.27;3.07;;;14.90;99.90;;;;;;5012406;28;20208;-63
2021/12/05 03:58:01;;;;;;;7.53;2.50;;;14.90;99.90;;;;;;5003289;28;20185;-63
2021/12/05 04:00:33;;;;;;;6.73;2.70;;;14.90;99.90;;;;;;5003692;28;20204;-64
2021/12/05 04:03:05;;;;;;;4.40;2.60;;;14.90;99.90;;;;;;5006742;28;20538;-65
2021/12/05 04:05:34;;;;;;;6.40;2.80;;;14.90;99.90;;;;;;5008777;28;20284;-64
2021/12/05 04:08:04;;;;;;;9.60;2.77;;;14.90;99.90;;;;;;5004633;28;20898;-64
2021/12/05 04:10:30;;;;;;;7.10;2.97;;;14.90;99.90;;;;;;5007850;28;20193;-65
2021/12/05 04:12:57;;;;;;;10.07;3.10;;;14.90;99.90;;;;;;5009207;28;20204;-65
2021/12/05 04:15:24;;;;;;;13.33;3.13;;;14.90;99.90;;;;;;5008483;28;20192;-64
2021/12/05 04:17:51;;;;;;;10.87;2.90;;;15.00;99.90;;;;;;5009249;28;20211;-66
2021/12/05 04:20:19;;;;;;;8.50;3.20;;;15.00;99.90;;;;;;5008572;28;20201;-65
2021/12/05 04:22:47;;;;;;;7.93;2.83;;;15.10;99.90;;;;;;5006699;28;20229;-64
2021/12/05 04:25:17;;;;;;;6.37;3.13;;;15.10;99.90;;;;;;5022003;28;20558;-62
2021/12/05 04:27:49;;;;;;;7.33;3.10;;;15.10;99.90;;;;;;5008174;28;20213;-62
2021/12/05 04:30:21;;;;;;;8.13;3.37;;;15.10;99.90;;;;;;5008018;28;20188;-62
2021/12/05 04:32:48;;;;;;;9.03;3.43;;;15.00;99.90;;;;;;5007826;28;20236;-62
2021/12/05 04:35:17;;;;;;;17.33;3.50;;;15.00;99.90;;;;;;5008714;28;20199;-62
2021/12/05 04:37:44;;;;;;;6.40;2.63;;;15.00;99.90;;;;;;5008472;28;20672;-63
2021/12/05 04:40:12;;;;;;;12.47;3.47;;;15.00;99.90;;;;;;5008037;28;20231;-62
2021/12/05 04:42:38;;;;;;;8.53;3.27;;;15.00;99.90;;;;;;5006310;28;20181;-63
2021/12/05 04:45:12;;;;;;;8.37;3.23;;;14.90;99.90;;;;;;5007164;28;20284;-64
2021/12/05 04:47:40;;;;;;;7.83;3.53;;;15.00;99.90;;;;;;4999223;28;20237;-63
2021/12/05 04:50:07;;;;;;;6.57;2.97;;;14.90;99.90;;;;;;5008174;28;20227;-63
2021/12/05 04:52:36;;;;;;;6.60;3.57;;;14.90;99.90;;;;;;5008197;28;20204;-62
2021/12/05 04:55:06;;;;;;;8.50;3.50;;;15.00;99.90;;;;;;5007787;28;20259;-63
2021/12/05 04:57:33;;;;;;;12.27;3.50;;;15.00;99.90;;;;;;5002009;28;20665;-63
2021/12/05 05:00:01;;;;;;;6.27;3.50;;;15.00;99.90;;;;;;5007800;28;20208;-63
2021/12/05 05:02:27;;;;;;;9.53;3.23;;;15.00;99.90;;;;;;5007107;28;20371;-64
2021/12/05 05:04:56;;;;;;;8.93;3.60;;;14.90;99.90;;;;;;5008266;28;20937;-64
2021/12/05 05:07:27;;;;;;;6.07;3.27;;;14.90;99.90;;;;;;5007103;28;20189;-64
2021/12/05 05:10:01;;;;;;;7.67;3.63;;;14.90;99.90;;;;;;5020820;28;20198;-64
2021/12/05 05:12:27;;;;;;;8.90;3.97;;;14.80;99.90;;;;;;5006125;28;20205;-65
2021/12/05 05:14:55;;;;;;;9.70;3.63;;;14.80;99.90;;;;;;5004595;28;20204;-63
2021/12/05 05:17:22;;;;;;;4.63;3.13;;;14.80;99.90;;;;;;5008202;28;20852;-62
2021/12/05 05:19:53;;;;;;;9.27;4.60;;;14.80;99.90;;;;;;5007997;28;20259;-62
2021/12/05 05:22:39;;;;;;;12.03;3.87;;;14.70;99.90;;;;;;5006715;28;20733;-64
2021/12/05 05:28:35;;;;;;;11.93;3.30;;;14.70;99.90;;;;;;5022647;28;20224;-63
2021/12/05 05:52:11;;;;;;;8.17;4.07;;;14.50;99.90;;;;;;5007091;28;20185;-64
2021/12/05 05:54:37;;;;;;;5.60;3.30;;;14.50;99.90;;;;;;5010640;28;20607;-64
2021/12/05 05:57:56;;;;;;;8.03;3.63;;;14.60;99.90;;;;;;5005537;28;20221;-63
2021/12/05 06:00:04;;;;;;;12.47;3.83;;;14.60;99.90;;;;;;4992101;28;20201;-63
2021/12/05 06:05:17;;;;;;;10.40;4.10;;;14.60;99.90;;;;;;5038132;28;20189;-63
2021/12/05 06:07:46;;;;;;;9.23;3.40;;;14.60;99.90;;;;;;5006548;28;20239;-64
2021/12/05 06:10:21;;;;;;;7.67;3.70;;;14.60;99.90;;;;;;5005830;28;20192;-63
2021/12/05 06:12:48;;;;;;;5.60;3.73;;;14.60;99.90;;;;;;5005625;28;20216;-65
2021/12/05 06:15:19;;;;;;;11.87;3.90;;;14.60;99.90;;;;;;5005178;28;20242;-65
2021/12/05 06:17:46;;;;;;;10.83;4.30;;;14.60;99.90;;;;;;5006014;28;20811;-63
2021/12/05 06:20:18;;;;;;;10.37;4.50;;;14.60;99.90;;;;;;5005634;28;20324;-64
2021/12/05 06:22:46;;;;;;;10.63;4.40;;;14.60;99.90;;;;;;4988555;28;20208;-63
2021/12/05 06:25:20;;;;;;;14.13;4.70;;;14.50;99.90;;;;;;5006209;28;20197;-64
2021/12/05 06:27:49;;;;;;;10.37;5.10;;;14.40;99.90;;;;;;5005745;28;20215;-64
2021/12/05 06:46:39;;;;;;;10.37;2.10;;;13.10;99.90;;;;;;5035431;28;20192;-63
2021/12/05 06:49:05;;;;;;;5.73;2.40;;;12.80;99.90;;;;;;5003796;28;20249;-65
2021/12/05 06:51:32;;;;;;;7.73;2.23;;;12.60;99.90;;;;;;5000229;28;20271;-64
2021/12/05 06:53:58;;;;;;;10.07;2.43;;;12.50;99.90;;;;;;4999016;28;20220;-65
2021/12/05 06:56:26;;;;;;;12.87;3.40;;;12.40;99.90;;;;;;5008448;28;20244;-64
2021/12/05 06:58:53;;;;;;;12.73;3.30;;;12.20;99.90;;;;;;5005598;28;20199;-66
2021/12/05 07:01:20;;;;;;;10.80;3.20;;;12.10;99.90;;;;;;5003230;28;20197;-65
2021/12/05 07:03:49;;;;;;;9.37;2.53;;;12.10;99.90;;;;;;5006168;28;20320;-66
2021/12/05 07:08:47;;;;;;;11.83;3.40;;;12.10;99.90;;;;;;5002604;28;20197;-65
2021/12/05 07:19:01;;;;;;;5.77;2.50;;;11.90;99.90;;;;;;5005634;28;20263;-65
2021/12/05 07:40:23;;;;;;;9.33;2.90;;;11.80;99.90;;;;;;5009401;28;20626;-65
2021/12/05 07:43:03;;;;;;;8.63;2.30;;;11.70;99.90;;;;;;5008347;28;20193;-66
2021/12/05 07:46:05;;;;;;;6.20;2.20;;;11.70;99.90;;;;;;5004878;28;20421;-65
2021/12/05 07:48:33;;;;;;;11.83;2.40;;;11.70;99.90;;;;;;5003784;28;20193;-67
2021/12/05 07:54:07;;;;;;;8.17;3.30;;;11.70;99.90;;;;;;5007911;28;20189;-65
2021/12/05 07:59:39;;;;;;;10.50;2.97;;;11.70;99.90;;;;;;5002934;28;20716;-64
2021/12/05 08:16:01;;;;;;;6.70;3.30;;;12.00;99.90;;;;;;5014640;28;20212;-64
2021/12/05 08:18:30;;;;;;;8.93;3.73;;;12.00;99.90;;;;;;5010299;28;20203;-66
2021/12/05 08:20:59;;;;;;;9.53;3.70;;;12.00;99.90;;;;;;5007774;28;20637;-65
2021/12/05 08:23:29;;;;;;;4.10;3.00;;;12.00;99.90;;;;;;5008530;28;20185;-65
2021/12/05 08:26:05;;;;;;;9.37;3.90;;;12.10;99.90;;;;;;5007299;28;20656;-64
2021/12/05 08:31:22;;;;;;;9.23;3.37;;;12.10;99.90;;;;;;4997477;28;20219;-64
2021/12/05 08:34:05;;;;;;;7.30;3.37;;;12.10;99.90;;;;;;5007819;28;20196;-64
2021/12/05 08:44:50;;;;;;;9.73;3.77;;;12.20;99.90;;;;;;5007154;28;20279;-65
2021/12/05 10:07:25;;;;;;;3.70;1.70;;;13.30;99.90;;;;;;5005347;28;20188;-66
2021/12/05 10:38:27;;;;;;;4.87;2.37;;;18.00;99.90;;;;;;5005110;28;20320;-66
2021/12/05 10:43:44;;;;;;;5.90;1.80;;;17.70;99.90;;;;;;5004613;28;20200;-66
2021/12/05 10:46:16;;;;;;;7.30;2.00;;;17.50;99.90;;;;;;5005069;28;20201;-66
2021/12/05 10:48:53;;;;;;;9.17;1.70;;;17.20;99.90;;;;;;5003363;28;20207;-66
2021/12/05 10:51:39;;;;;;;8.23;2.07;;;16.70;99.90;;;;;;5004989;28;20195;-66
2021/12/05 10:54:15;;;;;;;4.90;2.10;;;16.80;99.90;;;;;;5006728;28;20275;-66
2021/12/05 10:56:49;;;;;;;5.13;2.17;;;17.00;99.90;;;;;;4998301;28;20224;-66
2021/12/05 10:59:24;;;;;;;4.40;2.20;;;17.10;99.90;;;;;;5003357;28;20188;-66
2021/12/05 11:01:52;;;;;;;7.13;2.50;;;16.90;99.90;;;;;;5004245;28;20192;-65
2021/12/05 11:04:38;;;;;;;6.80;2.40;;;16.80;99.90;;;;;;5004115;28;20193;-66
2021/12/05 11:07:15;;;;;;;5.77;2.33;;;16.60;99.90;;;;;;5005710;28;20311;-65
2021/12/05 11:09:57;;;;;;;6.20;2.80;;;16.40;99.90;;;;;;4987356;28;20197;-65
2021/12/05 11:12:27;;;;;;;6.43;2.73;;;16.20;99.90;;;;;;5003986;28;20199;-65
2021/12/05 11:15:08;;;;;;;4.80;2.40;;;16.10;99.90;;;;;;5005830;28;20256;-65
2021/12/05 11:17:47;;;;;;;4.67;2.60;;;16.10;99.90;;;;;;5001518;28;20231;-65
2021/12/05 11:20:30;;;;;;;3.93;2.53;;;16.00;99.90;;;;;;5005589;28;20204;-65
2021/12/05 11:22:57;;;;;;;6.00;2.93;;;16.00;99.90;;;;;;5006226;28;20184;-64
2021/12/05 11:25:29;;;;;;;6.30;2.40;;;15.80;99.90;;;;;;5005169;28;20193;-65
2021/12/05 11:28:08;;;;;;;5.47;2.07;;;15.90;99.90;;;;;;5004510;28;20688;-65
2021/12/05 11:30:40;;;;;;;4.87;1.90;;;15.80;99.90;;;;;;5004738;28;20235;-64
2021/12/05 11:33:21;;;;;;;6.83;1.90;;;15.80;99.90;;;;;;4988628;28;20193;-64
2021/12/05 11:35:54;;;;;;;3.87;1.87;;;15.80;99.90;;;;;;4986993;28;20281;-65
2021/12/05 11:38:30;;;;;;;5.50;1.70;;;15.70;99.90;;;;;;5001163;28;20204;-64
2021/12/05 11:41:15;;;;;;;3.53;1.50;;;15.70;99.90;;;;;;5015996;28;20197;-65
2021/12/05 11:43:54;;;;;;;5.43;1.73;;;15.70;99.90;;;;;;4999122;28;20212;-64
2021/12/05 11:46:31;;;;;;;3.83;1.40;;;15.70;99.90;;;;;;5001909;28;20201;-64
2021/12/05 11:49:13;;;;;;;6.33;1.50;;;15.60;99.90;;;;;;4998522;28;21056;-63
2021/12/05 11:51:59;;;;;;;6.07;1.30;;;15.60;99.90;;;;;;4999229;28;20203;-64
2021/12/05 11:54:33;;;;;;;5.60;1.50;;;15.60;99.90;;;;;;5000392;28;20195;-64
2021/12/05 11:57:16;;;;;;;5.50;1.53;;;15.60;99.90;;;;;;5003132;28;20326;-65
2021/12/05 11:59:57;;;;;;;5.97;1.77;;;15.50;99.90;;;;;;4999666;28;20200;-64
2021/12/05 12:02:40;;;;;;;4.67;1.57;;;15.50;99.90;;;;;;5001257;28;20628;-65
2021/12/05 12:05:25;;;;;;;4.17;1.20;;;15.40;99.90;;;;;;5001855;28;20243;-64
2021/12/05 12:08:09;;;;;;;3.63;1.47;;;15.40;99.90;;;;;;5003896;28;20194;-64
2021/12/05 12:10:50;;;;;;;9.03;1.40;;;15.30;99.90;;;;;;4994391;28;20199;-63
2021/12/05 12:13:23;;;;;;;7.63;1.60;;;15.30;99.90;;;;;;5000766;28;20276;-65
2021/12/05 12:15:59;;;;;;;3.60;1.27;;;15.30;99.90;;;;;;5004717;28;20200;-64
2021/12/05 12:18:36;;;;;;;6.97;1.70;;;15.40;99.90;;;;;;5016329;28;20272;-64
2021/12/05 12:21:27;;;;;;;3.07;1.47;;;15.40;99.90;;;;;;4996123;28;20280;-64
2021/12/05 12:23:57;;;;;;;9.97;1.67;;;15.30;99.90;;;;;;4998250;28;20188;-64
2021/12/05 12:26:25;;;;;;;3.80;1.30;;;15.30;99.90;;;;;;5002207;28;20181;-65
2021/12/05 12:28:56;;;;;;;5.60;1.70;;;15.30;99.90;;;;;;5005521;28;20717;-64
2021/12/05 12:31:34;;;;;;;6.33;1.90;;;15.20;99.90;;;;;;5003523;28;20196;-65
2021/12/05 12:34:13;;;;;;;4.70;1.43;;;15.20;99.90;;;;;;5005014;28;20197;-64
2021/12/05 12:36:48;;;;;;;4.73;1.50;;;15.20;99.90;;;;;;5004782;28;20231;-65
2021/12/05 12:39:18;;;;;;;6.03;1.93;;;15.20;99.90;;;;;;5004333;28;20254;-63
2021/12/05 12:42:15;;;;;;;4.70;1.70;;;15.20;99.90;;;;;;5037796;28;20244;-64
2021/12/05 12:45:09;;;;;;;6.07;1.57;;;15.10;99.90;;;;;;4981555;28;20204;-65
2021/12/05 12:47:43;;;;;;;7.63;2.00;;;15.10;99.90;;;;;;5036308;28;20193;-64
2021/12/05 12:50:51;;;;;;;6.80;1.73;;;15.20;99.90;;;;;;5031052;28;20272;-64
2021/12/05 12:53:29;;;;;;;6.70;1.70;;;15.10;99.90;;;;;;5001164;28;20296;-64
2021/12/05 12:56:09;;;;;;;5.27;2.00;;;15.10;99.90;;;;;;5022917;28;20776;-64
2021/12/05 12:58:49;;;;;;;3.73;1.70;;;15.00;99.90;;;;;;5003643;28;20324;-65
2021/12/05 13:01:49;;;;;;;4.50;1.83;;;15.00;99.90;;;;;;5004656;28;20511;-65
2021/12/05 13:10:40;;;;;;;5.80;1.53;;;15.00;99.90;;;;;;5005224;28;20476;-65
2021/12/05 13:13:25;;;;;;;8.23;1.37;;;15.00;99.90;;;;;;5002749;28;20205;-66
2021/12/05 13:15:59;;;;;;;3.27;1.30;;;15.00;99.90;;;;;;5018553;28;20991;-66
2021/12/05 13:18:48;;;;;;;6.03;1.40;;;14.90;99.90;;;;;;4997131;28;20197;-66
2021/12/05 13:21:39;;;;;;;9.53;2.17;;;14.90;99.90;;;;;;5000815;28;20188;-66
2021/12/05 13:24:29;;;;;;;9.07;1.53;;;14.90;99.90;;;;;;5001538;28;20189;-65
2021/12/05 13:27:24;;;;;;;5.93;1.50;;;14.90;99.90;;;;;;5001198;28;20219;-65
2021/12/05 13:29:55;;;;;;;3.23;1.50;;;14.90;99.90;;;;;;5003107;28;20693;-65
2021/12/05 13:32:31;;;;;;;4.20;1.43;;;14.80;99.90;;;;;;5004740;28;20215;-66
2021/12/05 13:35:07;;;;;;;5.67;1.80;;;14.80;99.90;;;;;;4997856;28;20193;-65
2021/12/05 13:37:53;;;;;;;7.07;1.67;;;14.80;99.90;;;;;;5005933;28;20224;-65
2021/12/05 13:40:26;;;;;;;3.67;1.77;;;14.80;99.90;;;;;;5017654;28;20262;-65
2021/12/05 13:43:08;;;;;;;6.10;1.83;;;14.80;99.90;;;;;;5004022;28;20243;-66
2021/12/05 13:45:43;;;;;;;5.10;2.10;;;14.70;99.90;;;;;;5002367;28;20228;-66
2021/12/05 13:48:17;;;;;;;5.80;1.83;;;14.70;99.90;;;;;;4986159;28;20246;-65
2021/12/05 13:50:50;;;;;;;4.73;1.80;;;14.70;99.90;;;;;;5005306;28;20293;-67
2021/12/05 13:53:27;;;;;;;5.17;2.10;;;14.60;99.90;;;;;;5003092;28;20182;-67
2021/12/05 13:55:54;;;;;;;6.13;2.50;;;14.60;99.90;;;;;;5005597;28;20234;-65
2021/12/05 13:58:36;;;;;;;7.13;1.87;;;14.50;99.90;;;;;;5005032;28;20788;-66
2021/12/05 14:01:43;;;;;;;7.77;2.60;;;14.50;99.90;;;;;;5003702;28;20278;-66
2021/12/05 14:04:19;;;;;;;7.30;1.70;;;14.40;99.90;;;;;;5003908;28;20738;-66
2021/12/05 14:06:58;;;;;;;5.23;2.07;;;14.40;99.90;;;;;;5000848;28;20204;-66
2021/12/05 14:09:29;;;;;;;4.97;1.77;;;14.30;99.90;;;;;;5003352;28;20947;-65
2021/12/05 14:12:00;;;;;;;4.43;1.87;;;14.30;99.90;;;;;;5004823;28;20323;-66
2021/12/05 14:14:53;;;;;;;4.67;1.80;;;14.20;99.90;;;;;;5005285;28;20200;-66
2021/12/05 14:17:31;;;;;;;4.87;1.80;;;14.10;99.90;;;;;;5005255;28;20205;-66
2021/12/05 14:20:17;;;;;;;8.00;2.20;;;14.10;99.90;;;;;;5004664;28;20246;-65
2021/12/05 14:22:48;;;;;;;6.70;1.97;;;14.10;99.90;;;;;;5004249;28;20246;-66
2021/12/05 14:25:22;;;;;;;6.87;2.03;;;14.00;99.90;;;;;;5005023;28;20994;-65
2021/12/05 14:27:57;;;;;;;8.10;1.90;;;14.00;99.90;;;;;;5004677;28;20212;-66
2021/12/05 14:30:29;;;;;;;9.57;1.80;;;14.00;99.90;;;;;;5004141;28;20231;-65
2021/12/05 14:32:58;;;;;;;5.67;1.90;;;13.90;99.90;;;;;;5004936;28;20197;-66
2021/12/05 14:35:39;;;;;;;2.93;1.43;;;13.80;99.90;;;;;;5002316;28;20192;-65
2021/12/05 14:38:08;;;;;;;4.60;1.90;;;13.70;99.90;;;;;;5032901;28;20244;-66
2021/12/05 14:40:37;;;;;;;7.13;1.90;;;13.60;99.90;;;;;;5002057;28;20224;-65
2021/12/05 14:43:12;;;;;;;7.40;1.73;;;13.70;99.90;;;;;;5001983;28;20195;-65
2021/12/05 14:45:43;;;;;;;4.03;1.80;;;13.60;99.90;;;;;;5001138;28;20205;-66
2021/12/05 14:48:15;;;;;;;4.63;1.80;;;13.50;99.90;;;;;;5001401;28;20185;-66
2021/12/05 14:50:44;;;;;;;13.37;1.70;;;13.50;99.90;;;;;;5002349;28;20630;-66
2021/12/05 14:53:14;;;;;;;11.27;2.23;;;13.50;99.90;;;;;;5011024;28;20197;-66
2021/12/05 14:55:41;;;;;;;6.73;1.80;;;13.40;99.90;;;;;;5006553;28;20298;-66
2021/12/05 14:58:14;;;;;;;5.30;1.50;;;13.30;99.90;;;;;;5002765;28;20256;-65
2021/12/05 15:00:52;;;;;;;11.47;1.87;;;13.30;99.90;;;;;;4999880;28;20693;-65
2021/12/05 15:03:25;;;;;;;3.47;1.57;;;13.20;99.90;;;;;;5003661;28;20565;-64
2021/12/05 15:06:07;;;;;;;6.00;1.53;;;13.10;99.90;;;;;;5005362;28;20828;-65
2021/12/05 15:08:35;;;;;;;10.60;2.00;;;13.10;99.90;;;;;;5004127;28;20196;-66
2021/12/05 15:11:09;;;;;;;11.77;1.87;;;13.00;99.90;;;;;;5003682;28;20203;-65
2021/12/05 15:13:39;;;;;;;7.03;1.67;;;13.00;99.90;;;;;;5003597;28;20230;-65
2021/12/05 15:16:05;;;;;;;7.30;2.20;;;13.00;99.90;;;;;;5019118;28;20707;-66
2021/12/05 15:18:34;;;;;;;8.37;1.80;;;12.90;99.90;;;;;;5003849;28;20207;-65
2021/12/05 15:21:04;;;;;;;6.17;2.17;;;12.90;99.90;;;;;;5003965;28;20200;-64
2021/12/05 15:23:35;;;;;;;8.63;2.20;;;12.90;99.90;;;;;;4999530;28;20201;-65
2021/12/05 15:26:06;;;;;;;5.73;1.73;;;12.80;99.90;;;;;;5002083;28;20216;-65
2021/12/05 15:28:35;;;;;;;5.77;1.80;;;12.70;99.90;;;;;;5018536;28;20212;-65
2021/12/05 15:31:02;;;;;;;3.33;1.57;;;12.70;99.90;;;;;;5002358;28;20231;-65
2021/12/05 15:33:28;;;;;;;6.27;2.10;;;12.60;99.90;;;;;;5019656;28;20189;-65
2021/12/05 15:35:58;;;;;;;4.80;2.10;;;12.60;99.90;;;;;;5004096;28;20957;-65
2021/12/05 15:38:29;;;;;;;7.30;2.50;;;12.60;99.90;;;;;;5005918;28;20206;-65
2021/12/05 15:41:06;;;;;;;7.50;3.63;;;12.50;99.90;;;;;;5032530;28;20192;-65
2021/12/05 15:43:36;;;;;;;6.97;3.67;;;12.60;99.90;;;;;;5003391;28;20200;-65
2021/12/05 15:46:04;;;;;;;12.10;3.03;;;12.60;99.90;;;;;;5007684;28;20201;-66
2021/12/05 15:48:35;;;;;;;4.73;1.73;;;12.60;99.90;;;;;;5035297;28;20181;-66
2021/12/05 15:51:06;;;;;;;3.50;1.60;;;12.70;99.90;;;;;;5002451;28;20205;-65
2021/12/05 15:53:36;;;;;;;7.33;1.90;;;12.60;99.90;;;;;;5003556;28;20227;-65
2021/12/05 15:56:11;;;;;;;7.50;1.73;;;12.60;99.90;;;;;;5018500;28;20284;-65
2021/12/05 15:58:46;;;;;;;10.03;1.90;;;12.50;99.90;;;;;;5003813;28;20193;-66
2021/12/05 16:01:22;;;;;;;10.03;1.90;;;12.50;99.90;;;;;;5007821;28;20184;-65
2021/12/05 16:04:00;;;;;;;5.83;2.00;;;12.40;99.90;;;;;;5039126;28;20196;-66
2021/12/05 16:06:40;;;;;;;6.23;1.83;;;12.40;99.90;;;;;;5004431;28;20227;-66
2021/12/05 16:09:20;;;;;;;5.47;1.83;;;12.30;99.90;;;;;;5006655;28;20185;-65
2021/12/05 16:11:51;;;;;;;9.33;2.30;;;12.20;99.90;;;;;;5003666;28;20223;-66
2021/12/05 16:14:37;;;;;;;5.40;2.13;;;12.20;99.90;;;;;;5039527;28;20227;-65
2021/12/05 16:17:21;;;;;;;4.10;2.13;;;12.20;99.90;;;;;;5004486;28;20220;-66
2021/12/05 16:20:34;;;;;;;3.27;2.00;;;12.30;99.90;;;;;;5040133;28;21092;-64
2021/12/05 16:23:04;;;;;;;5.00;1.80;;;12.30;99.90;;;;;;4926396;29;20278;-65
2021/12/05 16:25:32;;;;;;;4.33;1.80;;;12.30;99.90;;;;;;4994935;28;20319;-65
2021/12/05 16:28:05;;;;;;;6.03;2.07;;;12.20;99.90;;;;;;4988290;28;20970;-65
2021/12/05 16:30:39;;;;;;;4.23;2.23;;;12.10;99.90;;;;;;5007380;28;20200;-66
2021/12/05 16:33:07;;;;;;;6.93;2.20;;;12.10;99.90;;;;;;5007332;28;20246;-65
2021/12/05 16:35:51;;;;;;;3.00;1.60;;;12.20;99.90;;;;;;5006627;28;20200;-65
2021/12/05 16:38:36;;;;;;;5.70;2.00;;;12.20;99.90;;;;;;5008525;28;20309;-65
2021/12/05 16:41:31;;;;;;;7.13;1.83;;;12.20;99.90;;;;;;5006502;28;20206;-66
2021/12/05 16:44:05;;;;;;;3.43;1.70;;;12.20;99.90;;;;;;5007167;28;20292;-66
2021/12/05 16:46:45;;;;;;;3.60;1.80;;;12.20;99.90;;;;;;5007162;28;20192;-65
2021/12/05 16:49:18;;;;;;;5.13;1.60;;;12.10;99.90;;;;;;5003867;28;20196;-65
2021/12/05 16:52:01;;;;;;;6.67;2.40;;;12.10;99.90;;;;;;5003718;28;20272;-66
2021/12/05 16:54:47;;;;;;;4.57;1.70;;;12.10;99.90;;;;;;5006054;28;20204;-66
2021/12/05 16:57:17;;;;;;;5.37;1.90;;;12.10;99.90;;;;;;5007447;28;20220;-65
2021/12/05 16:59:55;;;;;;;8.53;2.13;;;12.00;99.90;;;;;;5004866;28;20185;-66
2021/12/05 17:02:31;;;;;;;3.90;1.73;;;12.10;99.90;;;;;;5005893;28;20185;-66
2021/12/05 17:05:26;;;;;;;7.83;1.80;;;12.00;99.90;;;;;;5004519;28;20204;-66
2021/12/05 17:11:04;;;;;;;6.00;2.10;;;12.10;99.90;;;;;;5003621;28;20201;-66
2021/12/05 17:13:51;;;;;;;4.63;1.67;;;12.00;99.90;;;;;;5004998;28;20590;-65
2021/12/05 17:16:22;;;;;;;5.07;2.10;;;12.00;99.90;;;;;;5007289;28;20255;-66
2021/12/05 17:19:02;;;;;;;4.10;2.10;;;12.00;99.90;;;;;;5005868;28;20225;-65
2021/12/05 17:21:47;;;;;;;5.70;1.93;;;12.00;99.90;;;;;;5006227;28;20507;-66
2021/12/05 17:24:15;;;;;;;10.67;2.60;;;12.00;99.90;;;;;;5000829;28;20193;-66
2021/12/05 17:27:16;;;;;;;5.77;1.97;;;12.00;99.90;;;;;;5005429;28;20306;-66
2021/12/05 17:29:44;;;;;;;15.30;3.17;;;12.00;99.90;;;;;;5037206;28;20193;-66
2021/12/05 17:32:20;;;;;;;4.67;2.20;;;12.00;99.90;;;;;;5005357;28;20563;-66
2021/12/05 17:34:56;;;;;;;5.50;1.77;;;12.00;99.90;;;;;;5005732;28;20534;-66
2021/12/05 17:37:29;;;;;;;6.37;1.80;;;12.00;99.90;;;;;;5005774;28;20282;-66
2021/12/05 17:39:58;;;;;;;5.33;2.10;;;12.00;99.90;;;;;;5011342;28;20201;-65
2021/12/05 17:42:28;;;;;;;7.20;2.20;;;12.00;99.90;;;;;;4997130;28;20211;-66
2021/12/05 17:44:59;;;;;;;6.93;1.77;;;12.00;99.90;;;;;;5006347;28;20246;-66
2021/12/05 17:47:28;;;;;;;6.07;1.77;;;12.00;99.90;;;;;;5006811;28;20189;-66
2021/12/05 17:50:00;;;;;;;4.93;1.93;;;12.00;99.90;;;;;;5006969;28;20192;-66
2021/12/05 17:52:29;;;;;;;5.93;1.63;;;12.00;99.90;;;;;;5002180;28;20282;-65
2021/12/05 17:55:06;;;;;;;6.13;2.20;;;12.00;99.90;;;;;;5006034;28;20220;-67
2021/12/05 17:57:45;;;;;;;8.17;2.13;;;12.00;99.90;;;;;;5006651;28;20743;-66
2021/12/05 18:00:35;;;;;;;5.80;2.10;;;12.10;99.90;;;;;;5016453;28;20181;-66
2021/12/05 18:03:13;;;;;;;3.47;1.67;;;12.10;99.90;;;;;;5004786;28;20220;-67
2021/12/05 18:05:51;;;;;;;2.93;1.73;;;12.20;99.90;;;;;;5005453;28;20577;-66
2021/12/05 18:08:24;;;;;;;9.40;1.93;;;12.30;99.90;;;;;;5005533;28;20200;-66
2021/12/05 18:10:57;;;;;;;2.90;1.70;;;12.40;99.90;;;;;;5004948;28;20197;-65
2021/12/05 18:13:25;;;;;;;4.67;1.70;;;12.40;99.90;;;;;;4999742;28;20212;-66
2021/12/05 18:16:04;;;;;;;7.43;2.53;;;12.50;99.90;;;;;;5001816;28;20292;-66
2021/12/05 18:18:35;;;;;;;9.03;2.00;;;12.50;99.90;;;;;;5035277;28;20216;-66
2021/12/05 18:21:09;;;;;;;6.43;2.10;;;12.50;99.90;;;;;;5001479;28;20216;-65
2021/12/05 18:23:38;;;;;;;6.27;2.67;;;12.50;99.90;;;;;;5011307;28;20355;-66
2021/12/05 18:26:07;;;;;;;4.77;1.80;;;12.50;99.90;;;;;;5002194;28;20511;-66
2021/12/05 18:28:35;;;;;;;11.00;1.97;;;12.50;99.90;;;;;;5003902;28;20762;-66
2021/12/05 18:31:03;;;;;;;5.93;2.13;;;12.50;99.90;;;;;;5003765;28;20709;-66
2021/12/05 18:33:30;;;;;;;8.97;2.00;;;12.50;99.90;;;;;;5004919;28;20189;-65
2021/12/05 18:35:57;;;;;;;7.17;1.90;;;12.50;99.90;;;;;;5004422;28;20196;-65
2021/12/05 18:38:25;;;;;;;4.20;2.33;;;12.50;99.90;;;;;;5004620;28;20292;-66
2021/12/05 18:40:57;;;;;;;7.40;1.93;;;12.50;99.90;;;;;;4984604;28;20657;-66
2021/12/05 18:43:28;;;;;;;5.57;1.80;;;12.50;99.90;;;;;;5014629;28;20197;-65
2021/12/05 18:45:55;;;;;;;6.00;1.67;;;12.50;99.90;;;;;;5001288;28;20189;-66
2021/12/05 18:48:22;;;;;;;6.87;2.00;;;12.40;99.90;;;;;;5004327;28;20254;-66
2021/12/05 18:50:49;;;;;;;8.03;1.63;;;12.40;99.90;;;;;;5000417;28;20193;-65
2021/12/05 18:53:17;;;;;;;6.57;1.93;;;12.40;99.90;;;;;;5034695;28;20196;-66
2021/12/05 18:55:45;;;;;;;3.80;1.57;;;12.50;99.90;;;;;;5021098;28;20555;-65
2021/12/05 18:58:14;;;;;;;7.13;1.97;;;12.40;99.90;;;;;;5016488;28;20736;-66
2021/12/05 19:06:30;;;;;;;4.30;1.77;;;12.50;99.90;;;;;;5004236;28;20693;-65
2021/12/05 19:14:08;;;;;;;8.97;1.67;;;12.50;99.90;;;;;;5004357;28;20649;-66
2021/12/05 19:16:35;;;;;;;7.77;1.70;;;12.40;99.90;;;;;;5003944;28;20200;-65
2021/12/05 19:19:05;;;;;;;5.40;1.70;;;12.40;99.90;;;;;;4997417;28;20180;-66
2021/12/05 19:21:32;;;;;;;6.03;1.90;;;12.30;99.90;;;;;;5003691;28;20188;-65
2021/12/05 19:23:59;;;;;;;6.03;1.80;;;12.20;99.90;;;;;;5005201;28;20184;-65